createdAt,value
2022-12-28T00:01:14.318Z,2.84
2022-12-28T00:03:43.834Z,2.92
2022-12-28T00:06:11.898Z,2.95
2022-12-28T00:08:40.456Z,2.97
2022-12-28T00:11:13.372Z,3.00
2022-12-28T00:13:48.202Z,3.03
2022-12-28T00:16:22.553Z,3.06
2022-12-28T00:18:51.389Z,3.09
2022-12-28T00:21:18.864Z,3.09
2022-12-28T00:23:49.678Z,3.12
2022-12-28T00:26:17.152Z,3.20
2022-12-28T00:28:44.712Z,3.21
2022-12-28T00:31:12.304Z,3.17
2022-12-28T00:33:39.827Z,3.15
2022-12-28T00:36:12.840Z,3.27
2022-12-28T00:38:40.851Z,3.30
2022-12-28T00:41:08.760Z,3.30
2022-12-28T00:43:36.682Z,3.28
2022-12-28T00:46:04.756Z,3.28
2022-12-28T00:48:32.574Z,3.36
2022-12-28T00:51:04.797Z,3.36
2022-12-28T00:53:33.677Z,3.42
2022-12-28T00:56:08.827Z,3.30
2022-12-28T00:58:36.781Z,3.39
2022-12-28T01:01:05.185Z,3.43
2022-12-28T01:03:32.921Z,3.43
2022-12-28T01:06:00.390Z,3.43
2022-12-28T01:08:27.862Z,3.42
2022-12-28T01:10:56.649Z,3.25
2022-12-28T01:13:24.113Z,3.37
2022-12-28T01:15:51.575Z,3.47
2022-12-28T01:18:20.572Z,3.48
2022-12-28T01:20:48.037Z,3.47
2022-12-28T01:23:15.494Z,3.41
2022-12-28T01:25:42.926Z,3.44
2022-12-28T01:28:11.755Z,3.47
2022-12-28T01:30:39.310Z,3.48
2022-12-28T01:33:06.831Z,3.50
2022-12-28T01:35:34.301Z,3.52
2022-12-28T01:38:01.740Z,3.53
2022-12-28T01:40:29.179Z,3.55
2022-12-28T01:42:56.630Z,3.57
2022-12-28T01:45:25.493Z,3.56
2022-12-28T01:47:55.746Z,3.52
2022-12-28T01:50:28.817Z,3.57
2022-12-28T01:52:58.422Z,3.52
2022-12-28T01:55:28.276Z,3.59
2022-12-28T01:57:59.058Z,3.64
2022-12-28T02:00:27.984Z,3.65
2022-12-28T02:02:59.849Z,3.69
2022-12-28T02:05:30.364Z,3.70
2022-12-28T02:08:03.626Z,3.73
2022-12-28T02:10:43.852Z,3.76
2022-12-28T02:13:15.106Z,3.76
2022-12-28T02:15:44.889Z,3.79
2022-12-28T02:18:14.125Z,3.80
2022-12-28T02:20:51.051Z,3.84
2022-12-28T02:23:34.154Z,3.89
2022-12-28T02:26:27.846Z,3.88
2022-12-28T02:29:27.409Z,3.93
2022-12-28T02:32:03.697Z,3.92
2022-12-28T02:34:39.513Z,3.93
2022-12-28T02:37:16.157Z,3.98
2022-12-28T02:39:49.651Z,3.97
2022-12-28T02:42:18.705Z,4.01
2022-12-28T02:45:05.148Z,4.00
2022-12-28T02:47:50.435Z,3.94
2022-12-28T02:50:18.865Z,4.01
2022-12-28T02:53:12.167Z,3.98
2022-12-28T02:56:09.996Z,4.00
2022-12-28T02:59:03.629Z,4.00
2022-12-28T03:02:08.001Z,3.98
2022-12-28T03:04:51.513Z,4.00
2022-12-28T03:07:42.880Z,4.00
2022-12-28T03:10:15.756Z,4.00
2022-12-28T03:12:49.593Z,4.00
2022-12-28T03:15:30.293Z,4.01
2022-12-28T03:18:21.203Z,4.01
2022-12-28T03:21:06.966Z,4.01
2022-12-28T03:23:55.099Z,4.01
2022-12-28T03:26:42.294Z,4.04
2022-12-28T03:29:30.714Z,4.05
2022-12-28T03:31:58.271Z,4.04
2022-12-28T03:34:27.363Z,4.05
2022-12-28T03:37:00.748Z,4.12
2022-12-28T03:39:35.480Z,4.16
2022-12-28T03:42:30.132Z,4.21
2022-12-28T03:45:03.520Z,4.20
2022-12-28T03:47:32.836Z,4.22
2022-12-28T03:50:02.104Z,4.23
2022-12-28T03:52:30.044Z,4.23
2022-12-28T03:54:57.618Z,4.33
2022-12-28T03:57:25.211Z,4.21
2022-12-28T03:59:52.659Z,4.38
2022-12-28T04:02:20.260Z,4.33
2022-12-28T04:04:47.883Z,4.36
2022-12-28T04:07:16.656Z,4.44
2022-12-28T04:09:44.100Z,4.42
2022-12-28T04:12:14.430Z,4.39
2022-12-28T04:14:41.872Z,4.37
2022-12-28T04:17:09.295Z,4.33
2022-12-28T04:19:36.744Z,4.39
2022-12-28T04:22:04.230Z,4.38
2022-12-28T04:24:33.037Z,4.40
2022-12-28T04:27:00.504Z,4.34
2022-12-28T04:29:28.001Z,4.38
2022-12-28T04:31:55.436Z,4.37
2022-12-28T04:34:22.919Z,4.38
2022-12-28T04:36:50.386Z,4.42
2022-12-28T04:39:17.910Z,4.42
2022-12-28T04:41:46.715Z,4.29
2022-12-28T04:44:14.204Z,4.46
2022-12-28T04:46:41.882Z,4.46
2022-12-28T04:49:09.415Z,4.49
2022-12-28T04:51:36.874Z,4.47
2022-12-28T04:54:04.591Z,4.48
2022-12-28T04:56:32.054Z,4.50
2022-12-28T04:59:01.683Z,4.50
2022-12-28T05:01:29.788Z,4.54
2022-12-28T05:03:59.825Z,4.53
2022-12-28T05:06:29.215Z,4.52
2022-12-28T05:08:57.326Z,4.51
2022-12-28T05:11:27.317Z,4.57
2022-12-28T05:13:54.994Z,4.56
2022-12-28T05:16:25.828Z,4.58
2022-12-28T05:18:53.433Z,4.54
2022-12-28T05:21:23.330Z,4.55
2022-12-28T05:23:51.300Z,4.61
2022-12-28T05:26:20.821Z,4.58
2022-12-28T05:28:48.692Z,4.46
2022-12-28T05:31:18.442Z,4.59
2022-12-28T05:33:48.299Z,4.54
2022-12-28T05:36:18.213Z,4.48
2022-12-28T05:38:46.030Z,4.50
2022-12-28T05:41:15.416Z,4.49
2022-12-28T05:43:43.492Z,4.47
2022-12-28T05:46:12.816Z,4.46
2022-12-28T05:48:42.318Z,4.46
2022-12-28T05:51:13.124Z,4.45
2022-12-28T05:53:41.641Z,4.33
2022-12-28T05:56:14.315Z,4.45
2022-12-28T05:58:42.784Z,4.41
2022-12-28T06:01:12.553Z,4.40
2022-12-28T06:03:40.763Z,4.39
2022-12-28T06:06:12.433Z,4.40
2022-12-28T06:08:41.047Z,4.52
2022-12-28T06:11:11.833Z,4.44
2022-12-28T06:13:39.871Z,4.33
2022-12-28T06:16:08.090Z,4.51
2022-12-28T06:18:36.445Z,4.52
2022-12-28T06:21:05.138Z,4.55
2022-12-28T06:23:34.265Z,4.57
2022-12-28T06:26:03.173Z,4.48
2022-12-28T06:28:30.689Z,4.53
2022-12-28T06:31:05.299Z,4.52
2022-12-28T06:33:32.768Z,4.51
2022-12-28T06:36:00.429Z,4.39
2022-12-28T06:38:29.520Z,4.58
2022-12-28T06:41:13.360Z,4.57
2022-12-28T06:43:43.438Z,4.59
2022-12-28T06:46:11.908Z,4.57
2022-12-28T06:48:40.497Z,4.59
2022-12-28T06:51:10.799Z,4.54
2022-12-28T06:53:39.344Z,4.50
2022-12-28T06:56:11.162Z,4.49
2022-12-28T06:58:38.757Z,4.42
2022-12-28T07:01:07.871Z,4.46
2022-12-28T07:03:35.582Z,4.45
2022-12-28T07:06:04.519Z,4.42
2022-12-28T07:08:33.326Z,4.39
2022-12-28T07:11:05.368Z,4.40
2022-12-28T07:13:34.604Z,4.44
2022-12-28T07:16:03.680Z,4.44
2022-12-28T07:18:31.160Z,4.44
2022-12-28T07:21:02.737Z,4.43
2022-12-28T07:23:31.349Z,4.47
2022-12-28T07:26:04.760Z,4.53
2022-12-28T07:28:32.200Z,4.48
2022-12-28T07:31:06.490Z,4.48
2022-12-28T07:33:34.933Z,4.53
2022-12-28T07:36:02.590Z,4.56
2022-12-28T07:38:30.021Z,4.50
2022-12-28T07:41:02.101Z,4.52
2022-12-28T07:43:30.123Z,4.44
2022-12-28T07:46:03.020Z,4.57
2022-12-28T07:48:32.332Z,4.61
2022-12-28T07:51:07.129Z,4.47
2022-12-28T07:53:34.870Z,4.59
2022-12-28T07:56:02.359Z,4.61
2022-12-28T07:58:30.008Z,4.63
2022-12-28T08:01:05.935Z,4.66
2022-12-28T08:03:34.094Z,4.68
2022-12-28T08:06:06.995Z,4.73
2022-12-28T08:08:36.114Z,4.65
2022-12-28T08:11:05.387Z,4.74
2022-12-28T08:13:35.554Z,4.65
2022-12-28T08:16:03.481Z,4.75
2022-12-28T08:18:32.997Z,4.71
2022-12-28T08:21:02.682Z,4.71
2022-12-28T08:23:30.665Z,4.68
2022-12-28T08:25:58.362Z,4.68
2022-12-28T08:28:25.850Z,4.68
2022-12-28T08:30:53.341Z,4.73
2022-12-28T08:33:20.798Z,4.76
2022-12-28T08:35:49.549Z,4.80
2022-12-28T08:38:17.009Z,4.74
2022-12-28T08:40:44.437Z,4.81
2022-12-28T08:43:11.894Z,4.84
2022-12-28T08:45:39.347Z,4.85
2022-12-28T08:48:07.155Z,4.87
2022-12-28T08:50:34.909Z,4.88
2022-12-28T08:53:03.661Z,4.90
2022-12-28T08:55:31.088Z,4.86
2022-12-28T08:57:58.534Z,4.98
2022-12-28T09:00:26.013Z,4.96
2022-12-28T09:02:53.479Z,4.96
2022-12-28T09:05:20.968Z,4.99
2022-12-28T09:07:48.636Z,5.02
2022-12-28T09:10:17.495Z,5.04
2022-12-28T09:12:44.990Z,5.05
2022-12-28T09:15:12.765Z,4.99
2022-12-28T09:17:40.210Z,5.07
2022-12-28T09:20:08.461Z,5.11
2022-12-28T09:22:35.899Z,5.13
2022-12-28T09:25:03.313Z,5.13
2022-12-28T09:27:32.063Z,5.15
2022-12-28T09:29:59.509Z,5.08
2022-12-28T09:32:26.967Z,5.17
2022-12-28T09:34:54.432Z,5.17
2022-12-28T09:37:21.864Z,5.17
2022-12-28T09:39:49.279Z,5.17
2022-12-28T09:42:21.511Z,5.18
2022-12-28T09:45:00.403Z,5.14
2022-12-28T09:47:38.902Z,5.14
2022-12-28T09:50:30.477Z,5.18
2022-12-28T09:53:20.715Z,5.19
2022-12-28T09:55:55.161Z,5.17
2022-12-28T09:58:23.144Z,5.12
2022-12-28T10:00:55.793Z,5.10
2022-12-28T10:03:26.712Z,5.24
2022-12-28T10:05:55.869Z,5.23
2022-12-28T10:08:25.784Z,5.23
2022-12-28T10:10:54.189Z,5.23
2022-12-28T10:16:18.560Z,5.25
2022-12-28T10:18:46.578Z,5.26
2022-12-28T10:21:14.789Z,5.26
2022-12-28T10:24:04.717Z,5.26
2022-12-28T10:26:31.947Z,5.26
2022-12-28T10:29:01.435Z,5.29
2022-12-28T10:31:35.007Z,5.28
2022-12-28T10:34:03.053Z,5.28
2022-12-28T10:36:34.712Z,5.38
2022-12-28T10:39:02.855Z,5.42
2022-12-28T10:41:36.932Z,5.56
2022-12-28T10:44:38.945Z,5.60
2022-12-28T10:47:17.785Z,5.62
2022-12-28T10:50:02.734Z,5.61
2022-12-28T10:52:37.174Z,5.59
2022-12-28T10:55:24.871Z,5.55
2022-12-28T10:58:27.523Z,5.56
2022-12-28T11:00:40.823Z,5.56
2022-12-28T11:03:19.660Z,5.54
2022-12-28T11:05:52.859Z,5.45
2022-12-28T11:08:24.833Z,5.48
2022-12-28T11:10:57.811Z,5.50
2022-12-28T11:13:27.113Z,5.54
2022-12-28T11:15:55.089Z,5.60
2022-12-28T11:18:24.088Z,5.66
2022-12-28T11:20:53.570Z,5.68
2022-12-28T11:23:23.462Z,5.75
2022-12-28T11:25:51.364Z,5.74
2022-12-28T11:28:22.578Z,5.84
2022-12-28T11:30:52.284Z,5.86
2022-12-28T11:33:29.759Z,5.77
2022-12-28T11:35:59.985Z,5.84
2022-12-28T11:38:39.521Z,5.86
2022-12-28T11:41:07.626Z,5.89
2022-12-28T11:43:53.802Z,5.89
2022-12-28T11:46:41.856Z,5.95
2022-12-28T11:49:35.112Z,5.99
2022-12-28T11:52:45.720Z,6.01
2022-12-28T11:55:39.172Z,6.08
2022-12-28T11:58:54.445Z,6.15
2022-12-28T12:01:48.173Z,6.26
2022-12-28T12:04:34.817Z,6.28
2022-12-28T12:07:32.115Z,6.38
2022-12-28T12:10:34.874Z,6.44
2022-12-28T12:13:24.643Z,6.43
2022-12-28T12:15:55.867Z,6.46
2022-12-28T12:18:25.817Z,6.29
2022-12-28T12:20:58.165Z,6.38
2022-12-28T12:23:42.310Z,6.38
2022-12-28T12:26:28.059Z,6.36
2022-12-28T12:29:00.017Z,6.39
2022-12-28T12:31:31.874Z,6.36
2022-12-28T12:34:06.875Z,6.33
2022-12-28T12:36:53.134Z,6.33
2022-12-28T12:39:44.702Z,6.34
2022-12-28T12:42:24.840Z,6.35
2022-12-28T12:44:58.284Z,6.36
2022-12-28T12:47:48.905Z,6.31
2022-12-28T12:50:44.129Z,6.31
2022-12-28T12:53:31.614Z,6.28
2022-12-28T12:56:08.493Z,6.26
2022-12-28T12:58:49.235Z,6.28
2022-12-28T13:01:34.243Z,6.22
2022-12-28T13:04:08.227Z,6.24
2022-12-28T13:06:39.364Z,6.12
2022-12-28T13:09:08.483Z,6.21
2022-12-28T13:11:39.571Z,6.22
2022-12-28T13:14:07.539Z,6.14
2022-12-28T13:16:35.060Z,6.16
2022-12-28T13:19:04.475Z,6.20
2022-12-28T13:21:41.948Z,6.19
2022-12-28T13:24:20.220Z,6.19
2022-12-28T13:26:49.141Z,6.18
2022-12-28T13:29:20.461Z,6.18
2022-12-28T13:31:50.511Z,6.12
2022-12-28T13:34:20.314Z,6.18
2022-12-28T13:36:54.144Z,6.20
2022-12-28T13:39:22.215Z,6.14
2022-12-28T13:41:53.433Z,6.17
2022-12-28T13:44:31.520Z,6.17
2022-12-28T13:47:03.730Z,6.19
2022-12-28T13:49:37.230Z,6.22
2022-12-28T13:52:10.540Z,6.20
2022-12-28T13:54:39.560Z,6.27
2022-12-28T13:57:44.620Z,6.30
2022-12-28T13:59:58.220Z,6.31
2022-12-28T14:02:27.311Z,6.33
2022-12-28T14:04:55.624Z,6.33
2022-12-28T14:07:28.689Z,6.31
2022-12-28T14:09:56.976Z,6.28
2022-12-28T14:12:26.132Z,6.33
2022-12-28T14:14:54.011Z,6.30
2022-12-28T14:17:22.829Z,6.29
2022-12-28T14:19:52.509Z,6.26
2022-12-28T14:22:31.700Z,6.27
2022-12-28T14:25:04.253Z,6.29
2022-12-28T14:27:36.763Z,6.19
2022-12-28T14:30:06.634Z,6.16
2022-12-28T14:32:39.133Z,6.25
2022-12-28T14:35:18.653Z,6.29
2022-12-28T14:37:50.862Z,6.27
2022-12-28T14:40:26.325Z,6.29
2022-12-28T14:42:56.386Z,6.30
2022-12-28T14:46:06.808Z,6.28
2022-12-28T14:48:37.246Z,6.26
2022-12-28T14:51:07.581Z,6.27
2022-12-28T14:53:35.115Z,6.26
2022-12-28T14:56:07.424Z,6.24
2022-12-28T15:01:42.461Z,6.22
2022-12-28T15:04:26.297Z,6.22
2022-12-28T15:06:53.775Z,6.20
2022-12-28T15:09:21.382Z,6.15
2022-12-28T15:11:48.829Z,6.08
2022-12-28T15:14:17.599Z,6.08
2022-12-28T15:16:45.246Z,6.14
2022-12-28T15:19:12.708Z,6.04
2022-12-28T15:21:41.022Z,6.13
2022-12-28T15:24:08.780Z,6.12
2022-12-28T15:26:36.212Z,6.09
2022-12-28T15:29:06.113Z,6.02
2022-12-28T15:31:34.970Z,6.07
2022-12-28T15:34:02.472Z,6.08
2022-12-28T15:36:29.925Z,6.07
2022-12-28T15:38:59.267Z,6.09
2022-12-28T15:41:49.886Z,6.04
2022-12-28T15:44:19.205Z,6.06
2022-12-28T15:46:49.827Z,5.96
2022-12-28T15:49:18.169Z,6.06
2022-12-28T15:51:46.641Z,6.03
2022-12-28T15:54:14.117Z,5.99
2022-12-28T15:56:42.794Z,6.02
2022-12-28T15:59:13.846Z,6.02
2022-12-28T16:01:44.345Z,6.00
2022-12-28T16:04:13.246Z,5.98
2022-12-28T16:06:44.523Z,5.89
2022-12-28T16:09:13.520Z,6.00
2022-12-28T16:11:41.869Z,6.00
2022-12-28T16:14:14.170Z,5.96
2022-12-28T16:16:42.203Z,5.93
2022-12-28T16:19:10.919Z,5.94
2022-12-28T16:21:39.695Z,5.93
2022-12-28T16:24:07.768Z,5.91
2022-12-28T16:26:35.473Z,5.91
2022-12-28T16:29:03.632Z,5.88
2022-12-28T16:31:32.778Z,5.87
2022-12-28T16:34:02.293Z,5.86
2022-12-28T16:36:30.095Z,5.86
2022-12-28T16:38:59.345Z,5.77
2022-12-28T16:41:32.987Z,5.80
2022-12-28T16:44:06.452Z,5.83
2022-12-28T16:46:34.246Z,5.81
2022-12-28T16:49:02.673Z,5.81
2022-12-28T16:51:30.627Z,5.84
2022-12-28T16:53:59.787Z,5.77
2022-12-28T16:56:27.243Z,5.85
2022-12-28T16:58:57.294Z,5.91
2022-12-28T17:01:24.977Z,5.91
2022-12-28T17:03:52.544Z,5.95
2022-12-28T17:06:20.192Z,5.95
2022-12-28T17:08:47.631Z,5.92
2022-12-28T17:11:16.484Z,5.83
2022-12-28T17:13:43.916Z,5.86
2022-12-28T17:16:11.412Z,5.85
2022-12-28T17:18:39.766Z,5.86
2022-12-28T17:21:10.043Z,5.83
2022-12-28T17:23:40.083Z,5.61
2022-12-28T17:26:07.771Z,5.83
2022-12-28T17:28:36.952Z,5.84
2022-12-28T17:31:09.249Z,5.78
2022-12-28T17:33:39.704Z,5.70
2022-12-28T17:36:08.688Z,5.73
2022-12-28T17:38:36.265Z,5.73
2022-12-28T17:41:08.048Z,5.72
2022-12-28T17:43:36.972Z,5.74
2022-12-28T17:46:04.730Z,5.77
2022-12-28T17:48:32.269Z,5.73
2022-12-28T17:50:59.793Z,5.66
2022-12-28T17:53:27.454Z,5.71
2022-12-28T17:55:54.908Z,5.68
2022-12-28T17:58:22.360Z,5.72
2022-12-28T18:00:55.890Z,5.75
2022-12-28T18:03:28.475Z,5.76
2022-12-28T18:05:59.325Z,5.85
2022-12-28T18:08:27.149Z,5.62
2022-12-28T18:10:54.739Z,5.90
2022-12-28T18:13:23.411Z,5.87
2022-12-28T18:15:51.379Z,5.72
2022-12-28T18:18:20.366Z,5.86
2022-12-28T18:20:57.116Z,5.85
2022-12-28T18:23:24.736Z,5.85
2022-12-28T18:25:52.253Z,5.81
2022-12-28T18:28:20.228Z,5.82
2022-12-28T18:30:47.892Z,5.80
2022-12-28T18:33:15.525Z,5.82
2022-12-28T18:35:44.489Z,5.91
2022-12-28T18:38:12.109Z,5.89
2022-12-28T18:40:39.864Z,5.91
2022-12-28T18:43:07.752Z,5.91
2022-12-28T18:45:35.406Z,5.94
2022-12-28T18:48:03.092Z,5.92
2022-12-28T18:50:30.701Z,5.91
2022-12-28T18:52:59.596Z,5.83
2022-12-28T18:55:27.189Z,5.97
2022-12-28T18:57:54.791Z,5.94
2022-12-28T19:00:22.462Z,5.89
2022-12-28T19:02:51.700Z,5.98
2022-12-28T19:05:19.393Z,5.92
2022-12-28T19:07:49.497Z,5.85
2022-12-28T19:10:21.093Z,5.91
2022-12-28T19:12:48.621Z,5.92
2022-12-28T19:15:16.296Z,5.93
2022-12-28T19:17:43.949Z,5.94
2022-12-28T19:20:12.007Z,6.03
2022-12-28T19:22:39.594Z,5.99
2022-12-28T19:25:08.394Z,5.82
2022-12-28T19:27:37.283Z,5.96
2022-12-28T19:30:05.639Z,5.98
2022-12-28T19:32:33.268Z,5.77
2022-12-28T19:35:00.803Z,6.00
2022-12-28T19:37:28.441Z,5.98
2022-12-28T19:39:57.881Z,6.04
2022-12-28T19:42:25.695Z,6.05
2022-12-28T19:44:54.645Z,6.06
2022-12-28T19:47:22.225Z,5.82
2022-12-28T19:49:49.920Z,6.14
2022-12-28T19:52:17.683Z,6.08
2022-12-28T19:54:45.349Z,5.95
2022-12-28T19:57:12.988Z,6.05
2022-12-28T19:59:40.689Z,6.05
2022-12-28T20:02:10.814Z,6.21
2022-12-28T20:04:38.429Z,6.02
2022-12-28T20:07:06.034Z,6.15
2022-12-28T20:09:33.555Z,6.02
2022-12-28T20:12:01.094Z,6.17
2022-12-28T20:14:28.691Z,6.07
2022-12-28T20:16:56.264Z,6.09
2022-12-28T20:19:25.255Z,6.14
2022-12-28T20:21:52.829Z,6.18
2022-12-28T20:24:21.719Z,6.02
2022-12-28T20:26:49.342Z,6.26
2022-12-28T20:29:18.294Z,6.31
2022-12-28T20:31:46.100Z,6.32
2022-12-28T20:34:13.648Z,6.34
2022-12-28T20:36:42.496Z,6.39
2022-12-28T20:39:10.072Z,6.47
2022-12-28T20:41:51.589Z,6.52
2022-12-28T20:44:23.813Z,6.48
2022-12-28T20:46:51.483Z,6.48
2022-12-28T20:49:22.293Z,6.51
2022-12-28T20:51:51.916Z,6.28
2022-12-28T20:54:23.023Z,6.37
2022-12-28T20:56:55.293Z,6.40
2022-12-28T20:59:24.665Z,6.55
2022-12-28T21:01:58.367Z,6.44
2022-12-28T21:04:27.242Z,6.54
2022-12-28T21:06:56.304Z,6.51
2022-12-28T21:09:24.024Z,6.43
2022-12-28T21:11:51.926Z,6.62
2022-12-28T21:14:19.538Z,6.59
2022-12-28T21:16:47.306Z,6.67
2022-12-28T21:19:17.054Z,6.62
2022-12-28T21:21:44.615Z,6.63
2022-12-28T21:24:13.513Z,6.61
2022-12-28T21:26:43.656Z,6.69
2022-12-28T21:29:11.258Z,6.67
2022-12-28T21:31:38.819Z,6.75
2022-12-28T21:34:06.392Z,6.74
2022-12-28T21:36:34.006Z,6.71
2022-12-28T21:39:01.588Z,6.76
2022-12-28T21:41:48.058Z,6.81
2022-12-28T21:44:19.001Z,6.73
2022-12-28T21:46:47.227Z,6.83
2022-12-28T21:49:14.891Z,6.86
2022-12-28T21:51:42.493Z,6.89
2022-12-28T21:54:13.726Z,6.94
2022-12-28T21:56:44.007Z,6.97
2022-12-28T21:59:12.422Z,6.88
2022-12-28T22:01:58.664Z,6.97
2022-12-28T22:04:44.709Z,7.02
2022-12-28T22:07:15.074Z,7.03
2022-12-28T22:10:00.316Z,7.06
2022-12-28T22:12:35.142Z,7.10
2022-12-28T22:15:22.300Z,7.05
2022-12-28T22:17:49.832Z,7.16
2022-12-28T22:20:17.521Z,7.17
2022-12-28T22:22:45.246Z,7.20
2022-12-28T22:25:13.876Z,7.27
2022-12-28T22:27:42.900Z,7.25
2022-12-28T22:30:12.047Z,7.31
2022-12-28T22:32:39.807Z,7.37
2022-12-28T22:35:09.457Z,7.31
2022-12-28T22:37:37.260Z,7.34
2022-12-28T22:40:06.442Z,7.41
2022-12-28T22:42:33.910Z,7.43
2022-12-28T22:45:02.869Z,7.46
2022-12-28T22:47:30.327Z,7.43
2022-12-28T22:49:57.761Z,7.40
2022-12-28T22:52:26.101Z,7.52
2022-12-28T22:54:53.559Z,7.54
2022-12-28T22:57:20.977Z,7.55
2022-12-28T22:59:48.417Z,7.56
2022-12-28T23:02:17.425Z,7.47
2022-12-28T23:04:45.009Z,7.59
2022-12-28T23:07:12.437Z,7.57
2022-12-28T23:09:39.885Z,7.52
2022-12-28T23:12:07.757Z,7.53
2022-12-28T23:14:53.606Z,7.49
2022-12-28T23:17:23.664Z,7.45
2022-12-28T23:20:08.918Z,7.58
2022-12-28T23:23:05.733Z,7.64
2022-12-28T23:25:50.498Z,7.55
2022-12-28T23:28:18.413Z,7.57
2022-12-28T23:30:47.746Z,7.57
2022-12-28T23:33:17.233Z,7.62
2022-12-28T23:35:45.006Z,7.66
2022-12-28T23:38:12.633Z,7.66
2022-12-28T23:40:41.063Z,7.64
2022-12-28T23:43:08.670Z,7.66
2022-12-28T23:45:36.689Z,7.65
2022-12-28T23:48:05.325Z,7.50
2022-12-28T23:50:34.176Z,7.61
2022-12-28T23:53:01.697Z,7.69
2022-12-28T23:55:29.229Z,7.62
2022-12-28T23:57:56.680Z,7.58
